createdAt,value
2023-06-10T00:00:52.525Z,36.93
2023-06-10T00:03:20.869Z,39.20
2023-06-10T00:05:48.192Z,35.13
2023-06-10T00:08:17.319Z,39.23
2023-06-10T00:10:44.899Z,40.50
2023-06-10T00:13:12.972Z,40.30
2023-06-10T00:15:42.049Z,38.33
2023-06-10T00:18:21.189Z,38.40
2023-06-10T00:20:51.587Z,36.07
2023-06-10T00:23:44.974Z,37.73
2023-06-10T00:26:20.949Z,36.60
2023-06-10T00:28:49.186Z,34.80
2023-06-10T00:31:22.543Z,36.57
2023-06-10T00:33:50.379Z,32.77
2023-06-10T00:36:17.941Z,36.97
2023-06-10T00:38:46.079Z,37.80
2023-06-10T00:41:14.071Z,36.87
2023-06-10T00:43:42.665Z,37.10
2023-06-10T00:46:10.975Z,32.00
2023-06-10T00:48:47.164Z,39.87
2023-06-10T00:51:17.434Z,33.63
2023-06-10T00:53:45.618Z,33.23
2023-06-10T00:56:19.258Z,36.13
2023-06-10T00:58:47.418Z,36.10
2023-06-10T01:01:17.488Z,36.83
2023-06-10T01:03:48.324Z,35.57
2023-06-10T01:06:25.826Z,36.23
2023-06-10T01:09:07.043Z,33.93
2023-06-10T01:11:43.035Z,32.53
2023-06-10T01:14:12.566Z,33.40
2023-06-10T01:16:42.667Z,35.53
2023-06-10T01:19:13.203Z,32.90
2023-06-10T01:21:47.071Z,32.40
2023-06-10T01:24:16.835Z,34.43
2023-06-10T01:26:48.181Z,33.33
2023-06-10T01:29:36.149Z,32.53
2023-06-10T01:32:15.850Z,30.90
2023-06-10T01:34:49.940Z,31.00
2023-06-10T01:37:20.132Z,31.47
2023-06-10T01:39:49.548Z,32.67
2023-06-10T01:42:20.879Z,31.07
2023-06-10T01:44:49.628Z,31.80
2023-06-10T01:47:18.778Z,32.60
2023-06-10T01:49:49.016Z,31.67
2023-06-10T01:52:16.835Z,36.87
2023-06-10T01:54:44.855Z,30.63
2023-06-10T01:57:13.519Z,30.77
2023-06-10T01:59:41.461Z,29.07
2023-06-10T02:02:09.279Z,29.30
2023-06-10T02:04:47.660Z,31.40
2023-06-10T02:07:14.942Z,30.30
2023-06-10T02:09:47.059Z,32.53
2023-06-10T02:12:16.694Z,35.50
2023-06-10T02:14:47.302Z,30.00
2023-06-10T02:17:16.202Z,30.57
2023-06-10T02:19:44.109Z,33.73
2023-06-10T02:22:11.939Z,30.73
2023-06-10T02:24:40.505Z,29.80
2023-06-10T02:27:08.356Z,33.90
2023-06-10T02:29:36.602Z,30.03
2023-06-10T02:32:05.001Z,29.77
2023-06-10T02:35:10.391Z,29.10
2023-06-10T02:37:38.602Z,27.73
2023-06-10T02:40:08.680Z,29.50
2023-06-10T02:42:36.406Z,27.27
2023-06-10T02:45:23.458Z,26.93
2023-06-10T02:47:54.932Z,28.70
2023-06-10T02:50:23.475Z,27.17
2023-06-10T02:52:53.609Z,28.67
2023-06-10T02:55:21.969Z,46.07
2023-06-10T02:57:50.553Z,32.00
2023-06-10T03:00:19.881Z,27.67
2023-06-10T03:11:20.041Z,29.00
2023-06-10T03:13:54.455Z,31.60
2023-06-10T03:16:25.649Z,31.90
2023-06-10T03:18:54.105Z,29.23
2023-06-10T03:21:30.628Z,26.10
2023-06-10T03:24:10.016Z,26.57
2023-06-10T03:26:42.562Z,27.67
2023-06-10T03:29:12.956Z,29.43
2023-06-10T03:31:40.946Z,25.43
2023-06-10T03:34:10.639Z,27.07
2023-06-10T03:36:46.355Z,28.30
2023-06-10T03:39:18.790Z,27.07
2023-06-10T03:41:46.869Z,26.83
2023-06-10T03:44:20.434Z,26.37
2023-06-10T03:49:31.188Z,24.70
2023-06-10T03:51:59.938Z,24.90
2023-06-10T03:54:29.093Z,26.40
2023-06-10T03:57:00.639Z,25.63
2023-06-10T03:59:30.961Z,27.07
2023-06-10T04:02:01.756Z,26.07
2023-06-10T04:04:35.092Z,25.90
2023-06-10T04:07:18.707Z,26.60
2023-06-10T04:09:53.343Z,25.80
2023-06-10T04:12:37.551Z,25.80
2023-06-10T04:15:10.959Z,30.20
2023-06-10T04:17:41.966Z,26.63
2023-06-10T04:20:23.049Z,27.37
2023-06-10T04:25:30.442Z,26.30
2023-06-10T04:28:02.907Z,24.67
2023-06-10T04:30:33.161Z,24.83
2023-06-10T04:33:04.502Z,24.20
2023-06-10T04:35:37.329Z,26.73
2023-06-10T04:38:11.651Z,24.03
2023-06-10T04:40:50.301Z,23.60
2023-06-10T04:43:26.090Z,24.10
2023-06-10T04:46:07.111Z,25.97
2023-06-10T04:51:42.045Z,25.47
2023-06-10T04:54:31.583Z,22.90
2023-06-10T04:56:59.130Z,25.40
2023-06-10T04:59:33.574Z,24.37
2023-06-10T05:02:05.430Z,25.40
2023-06-10T05:04:40.603Z,25.33
2023-06-10T05:07:08.354Z,23.10
2023-06-10T05:09:36.069Z,23.07
2023-06-10T05:12:07.795Z,23.77
2023-06-10T05:14:36.438Z,23.23
2023-06-10T05:17:07.580Z,24.57
2023-06-10T05:19:40.445Z,24.90
2023-06-10T05:22:08.002Z,23.07
2023-06-10T05:24:37.469Z,24.03
2023-06-10T05:27:08.672Z,21.63
2023-06-10T05:29:50.650Z,22.03
2023-06-10T05:32:25.120Z,21.60
2023-06-10T05:34:55.682Z,21.47
2023-06-10T05:37:25.260Z,20.60
2023-06-10T05:45:36.557Z,19.40
2023-06-10T05:48:11.313Z,19.77
2023-06-10T05:51:12.302Z,18.67
2023-06-10T05:53:50.595Z,18.37
2023-06-10T05:56:23.641Z,19.70
2023-06-10T05:58:51.090Z,16.27
2023-06-10T06:01:30.623Z,18.60
2023-06-10T06:03:58.831Z,17.27
2023-06-10T06:06:26.200Z,18.27
2023-06-10T06:08:53.931Z,16.93
2023-06-10T06:11:27.819Z,18.17
2023-06-10T06:13:58.191Z,18.07
2023-06-10T06:16:25.938Z,16.83
2023-06-10T06:18:53.340Z,19.47
2023-06-10T06:21:28.754Z,17.90
2023-06-10T06:24:00.277Z,16.60
2023-06-10T06:26:28.244Z,18.77
2023-06-10T06:29:04.595Z,15.40
2023-06-10T06:31:40.284Z,17.93
2023-06-10T06:34:36.151Z,19.03
2023-06-10T06:39:51.820Z,15.83
2023-06-10T06:42:34.205Z,17.50
2023-06-10T06:45:01.551Z,18.03
2023-06-10T06:47:34.718Z,16.93
2023-06-10T06:50:05.554Z,18.40
2023-06-10T06:55:20.402Z,16.33
2023-06-10T06:57:50.445Z,17.60
2023-06-10T07:00:20.754Z,17.70
2023-06-10T07:02:58.017Z,20.33
2023-06-10T07:05:36.051Z,16.73
2023-06-10T07:08:05.181Z,18.47
2023-06-10T07:10:33.639Z,18.93
2023-06-10T07:13:03.003Z,19.33
2023-06-10T07:15:52.473Z,17.93
2023-06-10T07:18:19.802Z,18.53
2023-06-10T07:20:47.409Z,18.07
2023-06-10T07:23:14.795Z,18.73
2023-06-10T07:26:03.993Z,17.60
2023-06-10T07:28:38.789Z,18.40
2023-06-10T07:31:13.623Z,17.40
2023-06-10T07:33:50.922Z,18.90
2023-06-10T07:36:40.357Z,22.27
2023-06-10T07:39:15.747Z,15.43
2023-06-10T07:41:43.370Z,16.50
2023-06-10T07:44:10.840Z,16.07
2023-06-10T07:46:41.737Z,16.13
2023-06-10T07:49:18.068Z,15.37
2023-06-10T07:54:34.362Z,16.90
2023-06-10T07:57:04.260Z,15.50
2023-06-10T07:59:31.489Z,14.87
2023-06-10T08:01:58.744Z,15.53
2023-06-10T08:04:48.917Z,15.63
2023-06-10T08:07:14.363Z,14.03
2023-06-10T08:09:41.942Z,14.37
2023-06-10T08:12:09.362Z,15.63
2023-06-10T08:14:48.425Z,13.20
2023-06-10T08:17:15.741Z,15.20
2023-06-10T08:19:48.505Z,14.17
2023-06-10T08:22:29.791Z,13.70
2023-06-10T08:24:57.775Z,13.83
2023-06-10T08:27:31.636Z,13.57
2023-06-10T08:32:41.116Z,20.13
2023-06-10T08:37:54.319Z,12.07
2023-06-10T08:40:29.406Z,10.77
2023-06-10T08:43:08.298Z,11.70
2023-06-10T08:45:46.769Z,10.03
2023-06-10T08:48:14.911Z,10.20
2023-06-10T08:51:02.508Z,14.30
2023-06-10T08:53:32.179Z,10.30
2023-06-10T08:56:04.747Z,11.13
2023-06-10T08:58:38.668Z,11.80
2023-06-10T09:01:06.094Z,12.27
2023-06-10T09:03:35.145Z,10.80
2023-06-10T09:06:02.536Z,9.60
2023-06-10T09:08:29.887Z,12.33
2023-06-10T09:11:01.966Z,11.50
2023-06-10T09:13:35.004Z,11.47
2023-06-10T09:16:03.339Z,12.77
2023-06-10T09:18:30.743Z,11.50
2023-06-10T09:21:00.126Z,12.03
2023-06-10T09:23:28.730Z,11.37
2023-06-10T09:25:59.561Z,11.80
2023-06-10T09:28:29.997Z,11.93
2023-06-10T09:31:04.249Z,9.63
2023-06-10T09:33:34.737Z,11.73
2023-06-10T09:36:03.994Z,10.50
2023-06-10T09:38:32.914Z,12.37
2023-06-10T09:41:02.417Z,9.50
2023-06-10T09:43:46.690Z,11.60
2023-06-10T09:46:20.904Z,11.40
2023-06-10T09:48:49.007Z,11.97
2023-06-10T09:51:21.069Z,11.93
2023-06-10T09:53:53.183Z,13.43
2023-06-10T09:56:20.669Z,13.10
2023-06-10T09:58:48.177Z,13.37
2023-06-10T10:01:18.161Z,12.37
2023-06-10T10:03:49.893Z,11.90
2023-06-10T10:06:19.486Z,11.27
2023-06-10T10:08:48.062Z,11.53
2023-06-10T10:11:18.930Z,12.70
2023-06-10T10:13:55.496Z,13.67
2023-06-10T10:16:49.704Z,14.40
2023-06-10T10:19:25.573Z,15.63
2023-06-10T10:21:55.794Z,16.03
2023-06-10T10:24:26.519Z,17.20
2023-06-10T10:26:57.582Z,15.83
2023-06-10T10:29:37.532Z,20.30
2023-06-10T10:32:05.701Z,15.63
2023-06-10T10:34:40.740Z,14.93
2023-06-10T10:37:07.928Z,13.27
2023-06-10T10:39:38.691Z,13.87
2023-06-10T10:42:10.728Z,13.90
2023-06-10T10:44:40.119Z,14.27
2023-06-10T10:47:10.636Z,13.00
2023-06-10T10:49:40.218Z,12.03
2023-06-10T10:52:13.130Z,11.63
2023-06-10T10:54:44.897Z,11.90
2023-06-10T11:00:25.414Z,10.20
2023-06-10T11:02:58.823Z,11.40
2023-06-10T11:05:49.440Z,11.17
2023-06-10T11:08:19.158Z,10.50
2023-06-10T11:11:04.766Z,9.70
2023-06-10T11:13:38.305Z,11.60
2023-06-10T11:16:06.057Z,9.83
2023-06-10T11:21:36.649Z,11.03
2023-06-10T11:24:22.786Z,10.60
2023-06-10T11:26:57.655Z,9.17
2023-06-10T11:29:28.112Z,9.97
2023-06-10T11:32:01.463Z,9.17
2023-06-10T11:34:29.379Z,9.70
2023-06-10T11:37:07.021Z,8.70
2023-06-10T11:39:41.933Z,8.97
2023-06-10T11:42:12.584Z,11.43
2023-06-10T11:44:40.235Z,17.23
2023-06-10T11:47:10.280Z,9.43
2023-06-10T11:49:37.560Z,10.17
2023-06-10T11:52:07.675Z,8.93
2023-06-10T11:54:39.835Z,8.77
2023-06-10T11:57:10.252Z,8.50
2023-06-10T11:59:39.875Z,12.27
2023-06-10T12:02:08.764Z,8.87
2023-06-10T12:04:36.394Z,14.73
2023-06-10T12:07:06.413Z,11.50
2023-06-10T12:09:48.519Z,8.77
2023-06-10T12:12:16.404Z,8.50
2023-06-10T12:15:00.275Z,7.53
2023-06-10T12:17:45.892Z,7.93
2023-06-10T12:20:34.783Z,8.03
2023-06-10T12:23:11.972Z,7.97
2023-06-10T12:25:40.778Z,9.47
2023-06-10T12:28:12.561Z,11.20
2023-06-10T12:30:44.361Z,14.73
2023-06-10T12:33:40.599Z,12.73
2023-06-10T12:36:25.782Z,13.50
2023-06-10T12:38:54.080Z,11.17
2023-06-10T12:41:23.957Z,8.90
2023-06-10T12:43:51.603Z,8.57
2023-06-10T12:46:21.315Z,9.77
2023-06-10T12:48:56.494Z,8.70
2023-06-10T12:51:24.145Z,8.00
2023-06-10T12:53:51.354Z,7.10
2023-06-10T12:56:18.611Z,7.73
2023-06-10T12:58:48.604Z,8.07
2023-06-10T13:01:18.076Z,8.00
2023-06-10T13:03:47.986Z,8.23
2023-06-10T13:06:21.164Z,7.73
2023-06-10T13:08:49.507Z,13.10
2023-06-10T13:11:20.154Z,9.03
2023-06-10T13:13:48.730Z,7.80
2023-06-10T13:16:19.908Z,6.90
2023-06-10T13:18:55.734Z,7.20
2023-06-10T13:21:27.777Z,8.23
2023-06-10T13:23:56.724Z,7.67
2023-06-10T13:26:27.159Z,5.87
2023-06-10T13:29:03.255Z,7.53
2023-06-10T13:31:32.988Z,6.33
2023-06-10T13:34:10.429Z,7.30
2023-06-10T13:36:43.894Z,5.70
2023-06-10T13:39:13.373Z,6.23
2023-06-10T13:41:40.733Z,8.50
2023-06-10T13:44:16.794Z,7.10
2023-06-10T13:46:50.253Z,5.97
2023-06-10T13:49:18.480Z,6.50
2023-06-10T13:51:52.574Z,5.57
2023-06-10T13:54:20.293Z,5.90
2023-06-10T13:56:50.065Z,6.57
2023-06-10T13:59:50.636Z,6.53
2023-06-10T14:02:21.039Z,6.33
2023-06-10T14:04:51.563Z,6.20
2023-06-10T14:07:24.630Z,11.50
2023-06-10T14:09:52.457Z,6.00
2023-06-10T14:12:19.639Z,5.60
2023-06-10T14:14:53.339Z,5.80
2023-06-10T14:17:29.009Z,6.67
2023-06-10T14:19:59.092Z,6.17
2023-06-10T14:22:26.570Z,5.20
2023-06-10T14:24:56.434Z,5.03
2023-06-10T14:27:28.419Z,5.33
2023-06-10T14:29:56.214Z,6.50
2023-06-10T14:32:32.352Z,6.07
2023-06-10T14:35:00.077Z,5.60
2023-06-10T14:37:31.796Z,5.40
2023-06-10T14:40:02.544Z,5.87
2023-06-10T14:42:30.412Z,6.10
2023-06-10T14:44:57.631Z,6.90
2023-06-10T14:47:27.798Z,7.63
2023-06-10T14:49:55.770Z,6.90
2023-06-10T14:52:22.956Z,6.23
2023-06-10T14:54:50.177Z,7.27
2023-06-10T14:57:22.194Z,5.60
2023-06-10T14:59:52.301Z,7.47
2023-06-10T15:02:22.192Z,6.20
2023-06-10T15:04:52.299Z,8.53
2023-06-10T15:07:24.714Z,5.90
2023-06-10T15:09:51.939Z,5.97
2023-06-10T15:12:29.684Z,10.37
2023-06-10T15:14:57.242Z,7.30
2023-06-10T15:17:29.328Z,5.73
2023-06-10T15:19:59.279Z,8.30
2023-06-10T15:22:28.990Z,5.27
2023-06-10T15:24:57.133Z,5.63
2023-06-10T15:27:24.827Z,6.20
2023-06-10T15:29:52.850Z,5.93
2023-06-10T15:32:20.670Z,5.97
2023-06-10T15:34:49.212Z,9.00
2023-06-10T15:37:16.895Z,7.33
2023-06-10T15:39:44.064Z,6.20
2023-06-10T15:42:12.594Z,5.80
2023-06-10T15:44:44.306Z,6.37
2023-06-10T15:47:14.609Z,7.20
2023-06-10T15:49:46.831Z,6.63
2023-06-10T15:52:17.183Z,6.43
2023-06-10T15:54:44.418Z,5.23
2023-06-10T15:57:11.636Z,7.03
2023-06-10T15:59:40.084Z,6.20
2023-06-10T16:02:07.436Z,7.17
2023-06-10T16:04:34.706Z,5.50
2023-06-10T16:07:02.628Z,5.27
2023-06-10T16:09:30.187Z,6.23
2023-06-10T16:11:57.750Z,6.83
2023-06-10T16:14:26.051Z,10.23
2023-06-10T16:16:53.866Z,13.40
2023-06-10T16:19:24.010Z,10.67
2023-06-10T16:21:53.896Z,5.33
2023-06-10T16:24:21.273Z,5.93
2023-06-10T16:27:04.167Z,11.10
2023-06-10T16:29:31.399Z,6.30
2023-06-10T16:32:03.455Z,6.93
2023-06-10T16:34:31.131Z,6.07
2023-06-10T16:36:58.689Z,5.40
2023-06-10T16:39:37.738Z,5.07
2023-06-10T16:42:13.885Z,5.60
2023-06-10T16:44:41.067Z,8.67
2023-06-10T16:47:08.927Z,4.87
2023-06-10T16:49:37.535Z,5.70
2023-06-10T16:52:05.536Z,10.87
2023-06-10T16:54:33.252Z,5.80
2023-06-10T16:57:00.894Z,8.30
2023-06-10T16:59:28.080Z,8.87
2023-06-10T17:02:01.041Z,6.00
2023-06-10T17:04:30.288Z,5.47
2023-06-10T17:06:57.639Z,7.30
2023-06-10T17:09:25.292Z,6.70
2023-06-10T17:11:52.554Z,6.87
2023-06-10T17:14:19.998Z,7.70
2023-06-10T17:16:47.832Z,6.10
2023-06-10T17:19:15.107Z,5.80
2023-06-10T17:21:42.801Z,7.30
2023-06-10T17:24:14.530Z,6.07
2023-06-10T17:26:42.233Z,5.83
2023-06-10T17:29:12.572Z,6.80
2023-06-10T17:31:39.806Z,6.57
2023-06-10T17:34:09.111Z,6.40
2023-06-10T17:36:37.764Z,7.57
2023-06-10T17:39:05.003Z,5.70
2023-06-10T17:41:32.754Z,5.50
2023-06-10T17:44:00.004Z,5.47
2023-06-10T17:46:28.983Z,6.40
2023-06-10T17:48:56.300Z,10.17
2023-06-10T17:51:23.597Z,6.67
2023-06-10T17:53:51.996Z,6.70
2023-06-10T17:56:19.190Z,5.80
2023-06-10T17:58:46.751Z,6.63
2023-06-10T18:01:14.108Z,7.83
2023-06-10T18:03:41.670Z,5.90
2023-06-10T18:06:13.609Z,9.20
2023-06-10T18:08:41.290Z,7.27
2023-06-10T18:11:10.853Z,7.23
2023-06-10T18:13:42.275Z,7.90
2023-06-10T18:16:09.488Z,6.80
2023-06-10T18:18:37.106Z,6.40
2023-06-10T18:21:04.965Z,5.50
2023-06-10T18:23:32.173Z,8.90
2023-06-10T18:25:59.860Z,7.90
2023-06-10T18:28:39.262Z,7.23
2023-06-10T18:31:09.743Z,7.50
2023-06-10T18:33:37.003Z,5.87
2023-06-10T18:36:04.716Z,6.13
2023-06-10T18:38:31.974Z,7.60
2023-06-10T18:40:59.282Z,6.00
2023-06-10T18:43:26.437Z,6.60
2023-06-10T18:45:54.327Z,7.30
2023-06-10T18:48:24.482Z,8.30
2023-06-10T18:50:51.758Z,7.20
2023-06-10T18:53:22.314Z,5.60
2023-06-10T18:55:53.571Z,7.30
2023-06-10T18:58:20.874Z,6.00
2023-06-10T19:00:48.097Z,6.43
2023-06-10T19:03:17.694Z,6.40
2023-06-10T19:05:44.979Z,7.27
2023-06-10T19:08:12.350Z,6.40
2023-06-10T19:10:39.533Z,9.40
2023-06-10T19:13:13.898Z,9.80
2023-06-10T19:15:41.795Z,7.70
2023-06-10T19:18:09.508Z,6.13
2023-06-10T19:20:37.150Z,9.43
2023-06-10T19:23:04.301Z,6.57
2023-06-10T19:25:31.431Z,6.40
2023-06-10T19:27:58.656Z,7.17
2023-06-10T19:30:26.044Z,6.20
2023-06-10T19:32:53.633Z,8.73
2023-06-10T19:35:21.740Z,7.83
2023-06-10T19:37:49.111Z,8.33
2023-06-10T19:40:20.990Z,13.40
2023-06-10T19:42:51.361Z,8.80
2023-06-10T19:45:19.071Z,7.83
2023-06-10T19:47:46.938Z,7.23
2023-06-10T19:50:14.496Z,7.37
2023-06-10T19:52:42.307Z,11.57
2023-06-10T19:55:10.014Z,7.77
2023-06-10T19:57:41.475Z,8.70
2023-06-10T20:00:10.490Z,9.23
2023-06-10T20:03:00.772Z,6.93
2023-06-10T20:05:44.355Z,7.47
2023-06-10T20:08:11.646Z,6.30
2023-06-10T20:10:43.333Z,7.67
2023-06-10T20:13:11.823Z,6.20
2023-06-10T20:15:43.821Z,7.60
2023-06-10T20:18:11.658Z,6.17
2023-06-10T20:20:52.719Z,16.03
2023-06-10T20:23:28.110Z,7.13
2023-06-10T20:25:55.518Z,7.80
2023-06-10T20:28:23.429Z,9.47
2023-06-10T20:30:54.109Z,7.73
2023-06-10T20:33:24.762Z,7.50
2023-06-10T20:35:52.451Z,8.17
2023-06-10T20:38:20.216Z,10.60
2023-06-10T20:40:50.679Z,11.07
2023-06-10T20:43:18.921Z,9.10
2023-06-10T20:45:46.335Z,8.80
2023-06-10T20:48:23.868Z,10.73
2023-06-10T20:50:51.164Z,10.00
2023-06-10T20:53:24.772Z,16.47
2023-06-10T20:56:02.574Z,18.27
2023-06-10T20:58:37.540Z,15.63
2023-06-10T21:01:27.056Z,12.33
2023-06-10T21:03:55.104Z,11.83
2023-06-10T21:06:26.124Z,10.30
2023-06-10T21:08:53.786Z,13.10
2023-06-10T21:11:32.504Z,14.50
2023-06-10T21:14:02.823Z,8.57
2023-06-10T21:16:31.761Z,16.60
2023-06-10T21:18:59.526Z,9.33
2023-06-10T21:21:40.569Z,9.30
2023-06-10T21:24:28.857Z,9.70
2023-06-10T21:26:56.482Z,12.63
2023-06-10T21:29:28.049Z,11.20
2023-06-10T21:31:56.219Z,9.23
2023-06-10T21:34:23.497Z,12.90
2023-06-10T21:36:51.351Z,13.60
2023-06-10T21:39:21.113Z,11.83
2023-06-10T21:41:48.413Z,11.37
2023-06-10T21:44:16.122Z,10.17
2023-06-10T21:46:43.674Z,10.73
2023-06-10T21:49:12.160Z,10.93
2023-06-10T21:51:44.530Z,9.03
2023-06-10T21:54:11.741Z,7.97
2023-06-10T21:56:42.872Z,10.53
2023-06-10T21:59:10.462Z,8.30
2023-06-10T22:01:38.355Z,7.77
2023-06-10T22:04:06.663Z,9.33
2023-06-10T22:06:35.566Z,7.67
2023-06-10T22:09:04.781Z,10.20
2023-06-10T22:11:36.050Z,7.57
2023-06-10T22:14:03.345Z,8.43
2023-06-10T22:16:33.628Z,10.57
2023-06-10T22:19:01.038Z,6.80
2023-06-10T22:21:30.160Z,7.63
2023-06-10T22:23:59.242Z,11.50
2023-06-10T22:26:36.822Z,7.90
2023-06-10T22:29:19.680Z,11.83
2023-06-10T22:31:47.422Z,7.40
2023-06-10T22:34:15.094Z,6.60
2023-06-10T22:36:42.328Z,7.83
2023-06-10T22:39:13.257Z,8.03
2023-06-10T22:41:41.097Z,8.27
2023-06-10T22:44:11.925Z,7.97
2023-06-10T22:46:39.118Z,7.87
2023-06-10T22:49:06.960Z,6.90
2023-06-10T22:51:35.885Z,6.30
2023-06-10T22:54:07.605Z,7.13
2023-06-10T22:56:34.908Z,8.47
2023-06-10T22:59:03.990Z,7.43
2023-06-10T23:01:33.576Z,8.40
2023-06-10T23:04:03.320Z,8.63
2023-06-10T23:06:31.102Z,7.20
2023-06-10T23:08:58.788Z,7.70
2023-06-10T23:11:27.024Z,7.37
2023-06-10T23:13:56.275Z,8.40
2023-06-10T23:16:23.601Z,8.40
2023-06-10T23:18:51.500Z,7.97
2023-06-10T23:21:21.770Z,7.87
2023-06-10T23:23:53.326Z,7.80
2023-06-10T23:26:20.620Z,9.50
2023-06-10T23:28:47.832Z,8.07
2023-06-10T23:31:18.481Z,8.30
2023-06-10T23:33:46.926Z,10.30
2023-06-10T23:36:15.446Z,9.73
2023-06-10T23:38:43.003Z,7.90
2023-06-10T23:41:10.154Z,8.93
2023-06-10T23:43:37.802Z,10.33
2023-06-10T23:46:05.043Z,9.30
2023-06-10T23:48:32.554Z,8.73
2023-06-10T23:51:02.852Z,8.23
2023-06-10T23:53:30.549Z,8.30
2023-06-10T23:55:58.450Z,7.20
2023-06-10T23:58:25.682Z,7.83
